createdAt,value
2023-01-20T00:01:12.227Z,10.30
2023-01-20T00:03:39.784Z,9.88
2023-01-20T00:06:07.048Z,8.23
2023-01-20T00:08:33.384Z,8.43
2023-01-20T00:11:04.413Z,8.13
2023-01-20T00:13:31.008Z,9.73
2023-01-20T00:15:57.335Z,8.65
2023-01-20T00:18:23.693Z,8.25
2023-01-20T00:20:50.013Z,9.55
2023-01-20T00:23:16.357Z,9.55
2023-01-20T00:25:42.650Z,8.38
2023-01-20T00:28:08.979Z,7.50
2023-01-20T00:30:35.553Z,8.15
2023-01-20T00:33:01.950Z,8.68
2023-01-20T00:35:28.347Z,11.50
2023-01-20T00:37:54.654Z,11.93
2023-01-20T00:40:20.987Z,9.70
2023-01-20T00:42:47.342Z,10.95
2023-01-20T00:45:14.080Z,9.73
2023-01-20T00:47:40.505Z,9.40
2023-01-20T00:50:07.179Z,9.90
2023-01-20T00:52:33.509Z,11.10
2023-01-20T00:54:59.786Z,12.00
2023-01-20T00:57:26.096Z,11.63
2023-01-20T00:59:52.450Z,12.00
2023-01-20T01:02:18.819Z,12.13
2023-01-20T01:04:49.568Z,12.35
2023-01-20T01:07:16.274Z,12.20
2023-01-20T01:09:42.562Z,10.80
2023-01-20T01:12:08.998Z,11.70
2023-01-20T01:14:35.294Z,13.00
2023-01-20T01:17:01.611Z,12.88
2023-01-20T01:19:27.918Z,12.93
2023-01-20T01:21:54.258Z,12.00
2023-01-20T01:24:20.638Z,11.85
2023-01-20T01:26:46.970Z,11.02
2023-01-20T01:29:13.330Z,12.05
2023-01-20T01:31:39.798Z,12.68
2023-01-20T01:34:06.117Z,14.38
2023-01-20T01:36:32.438Z,11.90
2023-01-20T01:38:59.296Z,12.05
2023-01-20T01:41:26.380Z,11.75
2023-01-20T01:44:11.215Z,11.32
2023-01-20T01:46:38.526Z,12.50
2023-01-20T01:49:13.940Z,12.55
2023-01-20T01:51:48.144Z,11.05
2023-01-20T01:54:18.466Z,11.95
2023-01-20T01:56:46.275Z,14.35
2023-01-20T01:59:14.957Z,13.38
2023-01-20T02:01:46.775Z,14.93
2023-01-20T02:04:15.830Z,15.95
2023-01-20T02:06:48.542Z,14.50
2023-01-20T02:09:14.947Z,13.73
2023-01-20T02:11:48.376Z,12.65
2023-01-20T02:14:21.557Z,11.98
2023-01-20T02:16:57.207Z,12.48
2023-01-20T02:19:35.915Z,12.35
2023-01-20T02:22:17.793Z,12.93
2023-01-20T02:25:18.145Z,12.82
2023-01-20T02:27:54.455Z,11.25
2023-01-20T02:30:54.215Z,12.88
2023-01-20T02:33:30.279Z,12.02
2023-01-20T02:36:26.290Z,11.93
2023-01-20T02:39:00.920Z,11.45
2023-01-20T02:41:39.046Z,11.55
2023-01-20T02:44:17.833Z,10.63
2023-01-20T02:46:56.243Z,11.15
2023-01-20T02:49:36.108Z,10.88
2023-01-20T02:52:27.097Z,10.00
2023-01-20T02:54:56.902Z,9.82
2023-01-20T02:57:32.707Z,10.35
2023-01-20T03:00:06.788Z,10.05
2023-01-20T03:02:36.710Z,10.02
2023-01-20T03:05:17.375Z,10.50
2023-01-20T03:07:45.761Z,9.68
2023-01-20T03:10:16.310Z,9.85
2023-01-20T03:12:50.442Z,7.95
2023-01-20T03:15:23.897Z,9.88
2023-01-20T03:17:50.483Z,9.15
2023-01-20T03:20:17.163Z,8.73
2023-01-20T03:22:43.527Z,8.73
2023-01-20T03:25:12.805Z,9.00
2023-01-20T03:27:39.270Z,9.48
2023-01-20T03:30:12.355Z,9.30
2023-01-20T03:32:39.478Z,9.55
2023-01-20T03:35:06.013Z,8.05
2023-01-20T03:37:32.356Z,9.38
2023-01-20T03:39:58.743Z,8.85
2023-01-20T03:42:31.565Z,8.18
2023-01-20T03:45:08.650Z,9.55
2023-01-20T03:48:12.830Z,8.15
2023-01-20T03:51:10.298Z,8.98
2023-01-20T03:53:45.771Z,8.15
2023-01-20T03:56:12.022Z,6.97
2023-01-20T03:58:43.234Z,7.60
2023-01-20T04:01:17.902Z,8.82
2023-01-20T04:03:48.577Z,8.13
2023-01-20T04:06:18.387Z,7.85
2023-01-20T04:08:50.639Z,8.30
2023-01-20T04:11:17.022Z,7.88
2023-01-20T04:13:43.424Z,8.60
2023-01-20T04:16:15.536Z,11.27
2023-01-20T04:18:45.229Z,14.05
2023-01-20T04:21:19.219Z,17.17
2023-01-20T04:23:56.637Z,11.52
2023-01-20T04:26:22.940Z,10.43
2023-01-20T04:28:49.222Z,9.82
2023-01-20T04:31:29.578Z,9.40
2023-01-20T04:33:57.039Z,8.38
2023-01-20T04:36:23.433Z,7.88
2023-01-20T04:38:49.710Z,8.18
2023-01-20T04:41:15.990Z,8.15
2023-01-20T04:43:45.859Z,12.05
2023-01-20T04:46:13.041Z,11.75
2023-01-20T04:48:39.624Z,14.30
2023-01-20T04:51:07.160Z,15.57
2023-01-20T04:53:34.555Z,16.67
2023-01-20T04:56:00.862Z,13.00
2023-01-20T04:58:27.176Z,12.93
2023-01-20T05:00:53.554Z,11.05
2023-01-20T05:03:19.904Z,9.30
2023-01-20T05:05:55.398Z,8.82
2023-01-20T05:08:21.987Z,10.98
2023-01-20T05:10:48.399Z,9.60
2023-01-20T05:13:14.699Z,9.18
2023-01-20T05:15:42.415Z,10.48
2023-01-20T05:18:08.775Z,9.55
2023-01-20T05:20:35.189Z,9.35
2023-01-20T05:23:01.649Z,9.30
2023-01-20T05:25:28.148Z,9.48
2023-01-20T05:27:54.482Z,10.65
2023-01-20T05:30:21.168Z,14.73
2023-01-20T05:32:51.821Z,13.95
2023-01-20T05:35:18.291Z,11.48
2023-01-20T05:37:44.661Z,10.60
2023-01-20T05:40:11.519Z,11.10
2023-01-20T05:42:37.857Z,11.77
2023-01-20T05:45:04.669Z,13.82
2023-01-20T05:47:30.999Z,11.43
2023-01-20T05:49:57.320Z,10.00
2023-01-20T05:52:23.772Z,11.07
2023-01-20T05:54:50.114Z,11.20
2023-01-20T05:57:18.169Z,9.07
2023-01-20T05:59:47.444Z,9.95
2023-01-20T06:02:18.473Z,9.35
2023-01-20T06:04:46.067Z,9.30
2023-01-20T06:07:12.533Z,8.95
2023-01-20T06:09:38.888Z,9.57
2023-01-20T06:12:05.421Z,9.13
2023-01-20T06:14:31.737Z,9.73
2023-01-20T06:16:58.141Z,11.02
2023-01-20T06:19:24.450Z,34.83
2023-01-20T06:21:50.824Z,32.42
2023-01-20T06:24:17.173Z,21.23
2023-01-20T06:26:43.475Z,12.88
2023-01-20T06:29:09.788Z,9.65
2023-01-20T06:31:36.160Z,10.23
2023-01-20T06:34:02.513Z,9.70
2023-01-20T06:36:28.818Z,9.77
2023-01-20T06:38:55.168Z,9.00
2023-01-20T06:41:21.745Z,13.15
2023-01-20T06:43:50.015Z,21.13
2023-01-20T06:46:16.871Z,17.20
2023-01-20T06:48:44.743Z,15.80
2023-01-20T06:51:19.801Z,15.18
2023-01-20T06:53:46.514Z,13.27
2023-01-20T06:56:14.780Z,14.05
2023-01-20T06:58:42.165Z,14.88
2023-01-20T07:01:12.147Z,22.73
2023-01-20T07:03:38.801Z,33.00
2023-01-20T07:06:14.172Z,23.27
2023-01-20T07:08:40.491Z,19.17
2023-01-20T07:11:06.807Z,27.23
2023-01-20T07:13:33.106Z,23.60
2023-01-20T07:15:59.438Z,17.15
2023-01-20T07:18:25.807Z,16.63
2023-01-20T07:20:55.900Z,14.88
2023-01-20T07:23:23.474Z,24.77
2023-01-20T07:26:08.057Z,20.48
2023-01-20T07:28:35.735Z,15.63
2023-01-20T07:31:06.394Z,15.52
2023-01-20T07:33:33.499Z,10.82
2023-01-20T07:36:00.287Z,15.10
2023-01-20T07:38:26.653Z,16.70
2023-01-20T07:40:52.962Z,42.40
2023-01-20T07:43:19.266Z,37.25
2023-01-20T07:45:45.650Z,17.83
2023-01-20T07:48:11.976Z,16.45
2023-01-20T07:50:38.351Z,21.17
2023-01-20T07:53:04.898Z,29.70
2023-01-20T07:55:31.314Z,15.55
2023-01-20T07:57:58.630Z,13.05
2023-01-20T08:00:25.226Z,14.95
2023-01-20T08:02:51.515Z,15.82
2023-01-20T08:05:17.821Z,13.18
2023-01-20T08:07:44.299Z,13.63
2023-01-20T08:10:10.698Z,15.65
2023-01-20T08:12:37.047Z,29.02
2023-01-20T08:15:03.688Z,13.70
2023-01-20T08:17:29.980Z,19.05
2023-01-20T08:19:56.261Z,17.95
2023-01-20T08:22:22.695Z,15.55
2023-01-20T08:24:48.981Z,19.85
2023-01-20T08:27:15.382Z,24.02
2023-01-20T08:29:41.690Z,25.17
2023-01-20T08:32:07.985Z,18.08
2023-01-20T08:34:34.687Z,29.50
2023-01-20T08:37:01.002Z,21.40
2023-01-20T08:39:27.372Z,18.20
2023-01-20T08:41:53.837Z,19.30
2023-01-20T08:44:21.133Z,20.80
2023-01-20T08:46:47.546Z,21.35
2023-01-20T08:49:16.819Z,20.00
2023-01-20T08:51:44.813Z,16.90
2023-01-20T08:54:11.245Z,17.92
2023-01-20T08:56:37.625Z,17.45
2023-01-20T08:59:04.432Z,19.52
2023-01-20T09:01:37.735Z,23.73
2023-01-20T09:04:06.801Z,25.88
2023-01-20T09:06:39.263Z,20.95
2023-01-20T09:09:05.636Z,22.25
2023-01-20T09:11:32.075Z,19.80
2023-01-20T09:13:58.499Z,18.25
2023-01-20T09:16:24.846Z,16.95
2023-01-20T09:18:51.170Z,16.73
2023-01-20T09:21:17.523Z,17.15
2023-01-20T09:23:43.902Z,16.77
2023-01-20T09:26:10.321Z,16.38
2023-01-20T09:28:36.681Z,15.63
2023-01-20T09:31:08.602Z,19.73
2023-01-20T09:33:39.281Z,15.35
2023-01-20T09:36:08.437Z,17.15
2023-01-20T09:38:53.597Z,18.67
2023-01-20T09:41:45.931Z,19.42
2023-01-20T09:44:24.375Z,18.25
2023-01-20T09:47:23.144Z,16.85
2023-01-20T09:50:35.739Z,18.85
2023-01-20T09:53:17.055Z,16.85
2023-01-20T09:58:41.420Z,19.63
2023-01-20T10:01:21.612Z,21.45
2023-01-20T10:03:56.040Z,24.08
2023-01-20T10:06:33.294Z,20.65
2023-01-20T10:09:06.443Z,19.27
2023-01-20T10:11:38.220Z,21.73
2023-01-20T10:14:38.504Z,41.53
2023-01-20T10:17:22.131Z,32.13
2023-01-20T10:20:03.738Z,96.97
2023-01-20T10:22:40.808Z,54.72
2023-01-20T10:25:18.461Z,24.90
2023-01-20T10:28:31.245Z,26.98
2023-01-20T10:31:01.570Z,23.38
2023-01-20T10:33:33.809Z,23.90
2023-01-20T10:36:00.374Z,15.68
2023-01-20T10:38:39.879Z,16.85
2023-01-20T10:41:19.621Z,17.45
2023-01-20T10:43:47.845Z,17.85
2023-01-20T10:46:26.565Z,15.93
2023-01-20T10:49:04.795Z,17.17
2023-01-20T10:51:43.409Z,16.52
2023-01-20T10:54:39.640Z,16.42
2023-01-20T10:57:12.296Z,27.35
2023-01-20T10:59:51.434Z,33.60
2023-01-20T11:02:24.524Z,38.60
2023-01-20T11:04:58.766Z,31.50
2023-01-20T11:07:26.694Z,20.67
2023-01-20T11:09:53.287Z,16.08
2023-01-20T11:12:27.498Z,13.38
2023-01-20T11:14:55.630Z,13.50
2023-01-20T11:17:22.242Z,14.73
2023-01-20T11:19:57.012Z,14.63
2023-01-20T11:22:35.504Z,17.23
2023-01-20T11:25:04.929Z,14.07
2023-01-20T11:27:43.884Z,12.15
2023-01-20T11:30:28.366Z,13.02
2023-01-20T11:33:24.154Z,18.45
2023-01-20T11:36:16.286Z,14.27
2023-01-20T11:38:45.538Z,14.00
2023-01-20T11:41:29.470Z,12.02
2023-01-20T11:43:58.849Z,11.85
2023-01-20T11:46:36.270Z,12.02
2023-01-20T11:49:21.924Z,10.95
2023-01-20T11:51:54.408Z,10.48
2023-01-20T11:54:26.343Z,9.63
2023-01-20T11:57:01.561Z,9.52
2023-01-20T11:59:30.242Z,7.70
2023-01-20T12:02:08.921Z,8.43
2023-01-20T12:05:10.712Z,8.73
2023-01-20T12:07:45.332Z,8.27
2023-01-20T12:10:28.241Z,9.07
2023-01-20T12:12:59.944Z,9.10
2023-01-20T12:15:31.210Z,9.48
2023-01-20T12:21:07.872Z,9.07
2023-01-20T12:24:01.535Z,9.93
2023-01-20T12:26:29.481Z,10.32
2023-01-20T12:29:24.396Z,10.27
2023-01-20T12:31:50.898Z,9.40
2023-01-20T12:34:27.512Z,8.20
2023-01-20T12:37:16.926Z,8.45
2023-01-20T12:40:03.982Z,8.57
2023-01-20T12:42:36.211Z,7.88
2023-01-20T12:45:28.543Z,7.38
2023-01-20T12:48:18.614Z,7.15
2023-01-20T12:51:03.362Z,9.45
2023-01-20T12:54:01.313Z,8.70
2023-01-20T12:56:53.276Z,10.82
2023-01-20T12:59:38.032Z,12.52
2023-01-20T13:02:16.453Z,18.45
2023-01-20T13:05:10.322Z,12.98
2023-01-20T13:07:52.249Z,17.77
2023-01-20T13:10:42.119Z,17.08
2023-01-20T13:13:18.316Z,11.95
2023-01-20T13:16:26.535Z,9.60
2023-01-20T13:19:04.330Z,8.27
2023-01-20T13:21:32.337Z,8.25
2023-01-20T13:24:01.411Z,8.23
2023-01-20T13:26:30.624Z,8.02
2023-01-20T13:29:00.271Z,7.80
2023-01-20T13:31:52.812Z,7.05
2023-01-20T13:34:22.187Z,7.03
2023-01-20T13:37:22.350Z,6.97
2023-01-20T13:39:50.339Z,7.18
2023-01-20T13:42:38.320Z,7.72
2023-01-20T13:45:14.430Z,7.18
2023-01-20T13:47:52.341Z,7.32
2023-01-20T13:50:31.130Z,7.25
2023-01-20T13:52:57.515Z,9.20
2023-01-20T13:55:45.529Z,9.13
2023-01-20T13:58:21.868Z,9.00
2023-01-20T14:00:50.424Z,8.85
2023-01-20T14:03:19.755Z,9.55
2023-01-20T14:05:51.441Z,8.70
2023-01-20T14:08:19.095Z,8.10
2023-01-20T14:10:45.599Z,6.80
2023-01-20T14:13:18.593Z,7.45
2023-01-20T14:15:52.669Z,7.57
2023-01-20T14:18:21.647Z,12.18
2023-01-20T14:21:17.287Z,12.35
2023-01-20T14:23:46.143Z,13.88
2023-01-20T14:26:19.798Z,13.32
2023-01-20T14:28:49.324Z,14.35
2023-01-20T14:31:28.824Z,14.55
2023-01-20T14:33:55.234Z,17.48
2023-01-20T14:36:22.992Z,22.10
2023-01-20T14:38:58.903Z,21.25
2023-01-20T14:41:47.561Z,55.88
2023-01-20T14:44:20.387Z,34.90
2023-01-20T14:46:48.920Z,21.30
2023-01-20T14:49:17.643Z,21.75
2023-01-20T14:51:46.499Z,17.25
2023-01-20T14:54:32.106Z,15.25
2023-01-20T14:56:59.542Z,13.40
2023-01-20T14:59:26.587Z,12.13
2023-01-20T15:01:55.242Z,21.00
2023-01-20T15:04:22.040Z,24.83
2023-01-20T15:06:53.555Z,24.27
2023-01-20T15:09:31.855Z,25.98
2023-01-20T15:12:35.527Z,15.77
2023-01-20T15:15:30.586Z,17.02
2023-01-20T15:18:17.962Z,14.00
2023-01-20T15:20:47.416Z,33.45
2023-01-20T15:23:20.675Z,26.05
2023-01-20T15:25:48.913Z,28.75
2023-01-20T15:28:42.778Z,27.63
2023-01-20T15:31:13.956Z,39.00
2023-01-20T15:36:20.785Z,31.27
2023-01-20T15:38:47.583Z,18.17
2023-01-20T15:41:14.104Z,14.85
2023-01-20T15:43:45.395Z,20.73
2023-01-20T15:46:16.913Z,18.48
2023-01-20T15:48:44.696Z,11.77
2023-01-20T15:51:16.610Z,10.52
2023-01-20T15:53:43.678Z,11.60
2023-01-20T15:56:30.238Z,11.70
2023-01-20T15:58:57.478Z,8.38
2023-01-20T16:01:25.827Z,8.52
2023-01-20T16:03:54.802Z,7.63
2023-01-20T16:06:26.539Z,7.60
2023-01-20T16:08:52.896Z,8.00
2023-01-20T16:11:19.760Z,7.68
2023-01-20T16:13:46.754Z,6.85
2023-01-20T16:16:16.135Z,6.60
2023-01-20T16:18:42.763Z,8.07
2023-01-20T16:21:13.996Z,5.97
2023-01-20T16:23:40.739Z,7.95
2023-01-20T16:26:22.372Z,8.30
2023-01-20T16:28:50.101Z,8.15
2023-01-20T16:31:16.736Z,8.38
2023-01-20T16:33:43.419Z,9.88
2023-01-20T16:36:18.042Z,9.05
2023-01-20T16:38:45.013Z,6.82
2023-01-20T16:41:31.601Z,8.30
2023-01-20T16:43:58.435Z,7.30
2023-01-20T16:46:27.592Z,7.25
2023-01-20T16:49:01.687Z,7.97
2023-01-20T16:51:29.471Z,7.63
2023-01-20T16:53:57.083Z,8.85
2023-01-20T16:56:26.206Z,9.38
2023-01-20T16:58:54.066Z,13.65
2023-01-20T17:01:24.322Z,20.20
2023-01-20T17:03:53.196Z,20.30
2023-01-20T17:06:25.111Z,18.48
2023-01-20T17:08:54.345Z,18.77
2023-01-20T17:11:40.956Z,19.67
2023-01-20T17:14:09.480Z,23.35
2023-01-20T17:16:36.341Z,31.30
2023-01-20T17:19:02.921Z,39.55
2023-01-20T17:21:30.981Z,28.42
2023-01-20T17:24:00.369Z,20.63
2023-01-20T17:26:27.734Z,19.92
2023-01-20T17:29:01.949Z,17.30
2023-01-20T17:31:28.466Z,16.63
2023-01-20T17:33:54.832Z,18.33
2023-01-20T17:36:21.133Z,16.92
2023-01-20T17:38:47.459Z,16.45
2023-01-20T17:41:14.655Z,14.93
2023-01-20T17:43:46.309Z,15.25
2023-01-20T17:46:12.872Z,15.68
2023-01-20T17:48:39.218Z,17.35
2023-01-20T17:51:14.138Z,12.88
2023-01-20T17:53:41.230Z,12.18
2023-01-20T17:56:12.865Z,11.60
2023-01-20T17:58:40.902Z,13.75
2023-01-20T18:01:15.062Z,11.07
2023-01-20T18:03:43.203Z,13.63
2023-01-20T18:06:15.457Z,13.55
2023-01-20T18:08:42.509Z,13.23
2023-01-20T18:11:19.032Z,13.27
2023-01-20T18:13:46.477Z,15.57
2023-01-20T18:16:15.197Z,16.92
2023-01-20T18:18:43.879Z,16.80
2023-01-20T18:21:21.602Z,14.60
2023-01-20T18:23:49.184Z,14.05
2023-01-20T18:26:17.731Z,16.17
2023-01-20T18:28:47.723Z,16.25
2023-01-20T18:31:18.117Z,15.60
2023-01-20T18:33:47.979Z,12.68
2023-01-20T18:36:17.663Z,17.25
2023-01-20T18:38:52.157Z,14.30
2023-01-20T18:41:19.285Z,15.70
2023-01-20T18:43:46.484Z,20.83
2023-01-20T18:46:12.986Z,22.35
2023-01-20T18:48:47.166Z,20.30
2023-01-20T18:51:15.973Z,15.65
2023-01-20T18:53:45.040Z,18.30
2023-01-20T18:56:15.121Z,23.83
2023-01-20T18:58:46.836Z,17.38
2023-01-20T19:01:19.660Z,16.83
2023-01-20T19:03:47.146Z,17.88
2023-01-20T19:06:16.420Z,17.55
2023-01-20T19:08:44.742Z,17.08
2023-01-20T19:11:17.609Z,20.60
2023-01-20T19:13:45.237Z,22.50
2023-01-20T19:16:12.941Z,22.42
2023-01-20T19:18:40.926Z,24.38
2023-01-20T19:21:09.817Z,23.98
2023-01-20T19:23:36.541Z,22.88
2023-01-20T19:26:05.269Z,25.52
2023-01-20T19:28:31.620Z,26.95
2023-01-20T19:31:05.591Z,26.60
2023-01-20T19:33:32.853Z,23.75
2023-01-20T19:36:00.656Z,23.10
2023-01-20T19:38:27.074Z,22.75
2023-01-20T19:40:53.631Z,20.88
2023-01-20T19:43:20.436Z,17.58
2023-01-20T19:45:47.005Z,16.35
2023-01-20T19:48:13.345Z,18.85
2023-01-20T19:50:39.932Z,20.48
2023-01-20T19:53:06.346Z,18.38
2023-01-20T19:55:32.653Z,18.30
2023-01-20T19:57:59.044Z,18.58
2023-01-20T20:00:25.351Z,17.58
2023-01-20T20:02:54.836Z,20.23
2023-01-20T20:05:21.326Z,23.40
2023-01-20T20:07:47.646Z,19.95
2023-01-20T20:10:17.468Z,21.45
2023-01-20T20:12:44.098Z,19.83
2023-01-20T20:15:10.826Z,20.17
2023-01-20T20:17:37.141Z,21.13
2023-01-20T20:20:03.572Z,22.52
2023-01-20T20:22:29.855Z,23.52
2023-01-20T20:24:56.167Z,22.95
2023-01-20T20:27:22.533Z,24.48
2023-01-20T20:29:48.840Z,25.42
2023-01-20T20:32:16.528Z,26.67
2023-01-20T20:34:42.860Z,29.35
2023-01-20T20:37:09.146Z,32.30
2023-01-20T20:39:36.095Z,38.15
2023-01-20T20:42:02.410Z,33.45
2023-01-20T20:44:28.771Z,32.95
2023-01-20T20:46:55.085Z,28.40
2023-01-20T20:49:21.423Z,27.90
2023-01-20T20:51:47.765Z,29.13
2023-01-20T20:54:16.709Z,29.08
2023-01-20T20:56:43.810Z,26.63
2023-01-20T20:59:10.695Z,28.42
2023-01-20T21:01:37.151Z,26.70
2023-01-20T21:04:04.337Z,26.40
2023-01-20T21:06:31.905Z,28.85
2023-01-20T21:09:01.191Z,30.88
2023-01-20T21:11:27.875Z,30.35
2023-01-20T21:13:54.691Z,30.42
2023-01-20T21:16:22.903Z,29.83
2023-01-20T21:18:51.010Z,25.05
2023-01-20T21:21:19.080Z,25.27
2023-01-20T21:23:50.688Z,24.92
2023-01-20T21:26:17.345Z,24.17
2023-01-20T21:28:44.300Z,24.75
2023-01-20T21:31:13.682Z,19.05
2023-01-20T21:33:41.507Z,20.17
2023-01-20T21:36:09.647Z,20.23
2023-01-20T21:38:37.325Z,19.55
2023-01-20T21:41:09.742Z,18.08
2023-01-20T21:43:56.732Z,16.33
2023-01-20T21:46:24.276Z,16.45
2023-01-20T21:49:09.045Z,14.68
2023-01-20T21:51:53.888Z,13.90
2023-01-20T21:54:20.360Z,13.82
2023-01-20T21:56:47.983Z,14.23
2023-01-20T21:59:14.542Z,15.73
2023-01-20T22:01:41.123Z,47.03
2023-01-20T22:04:07.633Z,32.60
2023-01-20T22:06:33.980Z,28.80
2023-01-20T22:09:00.345Z,24.73
2023-01-20T22:11:26.905Z,82.32
2023-01-20T22:13:56.733Z,34.55
2023-01-20T22:16:24.451Z,30.88
2023-01-20T22:18:51.726Z,48.15
2023-01-20T22:21:19.174Z,33.90
2023-01-20T22:23:45.517Z,24.00
2023-01-20T22:26:11.985Z,22.05
2023-01-20T22:28:39.656Z,21.02
2023-01-20T22:31:14.650Z,20.00
2023-01-20T22:33:40.970Z,20.27
2023-01-20T22:36:07.497Z,19.40
2023-01-20T22:38:34.045Z,20.20
2023-01-20T22:41:08.601Z,19.50
2023-01-20T22:43:37.617Z,18.73
2023-01-20T22:46:04.911Z,19.10
2023-01-20T22:48:34.539Z,18.80
2023-01-20T22:51:06.420Z,22.30
2023-01-20T22:53:33.688Z,21.70
2023-01-20T22:56:04.005Z,22.98
2023-01-20T22:58:31.213Z,21.73
2023-01-20T23:00:57.961Z,21.38
2023-01-20T23:03:24.408Z,22.35
2023-01-20T23:05:58.472Z,22.08
2023-01-20T23:08:27.487Z,21.23
2023-01-20T23:10:56.254Z,20.85
2023-01-20T23:13:23.489Z,24.05
2023-01-20T23:15:51.172Z,20.05
2023-01-20T23:18:18.880Z,18.40
2023-01-20T23:20:49.465Z,17.65
2023-01-20T23:23:16.974Z,19.23
2023-01-20T23:25:43.324Z,20.70
2023-01-20T23:28:09.986Z,18.65
2023-01-20T23:30:36.596Z,19.83
2023-01-20T23:33:03.253Z,18.85
2023-01-20T23:35:29.612Z,17.60
2023-01-20T23:37:55.945Z,16.30
2023-01-20T23:40:22.867Z,15.70
2023-01-20T23:42:50.251Z,13.30
2023-01-20T23:45:16.603Z,12.38
2023-01-20T23:47:43.004Z,12.73
2023-01-20T23:50:10.057Z,12.35
2023-01-20T23:52:36.541Z,13.88
2023-01-20T23:55:02.979Z,12.05
2023-01-20T23:57:29.370Z,12.18
2023-01-20T23:59:55.778Z,10.88
